createdAt,value
2022-08-18T00:01:45.087Z,73.71
2022-08-18T00:04:33.081Z,73.98
2022-08-18T00:06:50.725Z,74.92
2022-08-18T00:09:12.348Z,76.14
2022-08-18T00:11:41.097Z,75.65
2022-08-18T00:14:03.858Z,75.25
2022-08-18T00:16:25.404Z,76.52
2022-08-18T00:18:46.825Z,77.69
2022-08-18T00:21:08.305Z,76.89
2022-08-18T00:23:32.503Z,77.10
2022-08-18T00:25:55.315Z,77.60
2022-08-18T00:28:16.794Z,76.55
2022-08-18T00:30:38.372Z,75.46
2022-08-18T00:33:01.193Z,75.70
2022-08-18T00:35:37.773Z,76.91
2022-08-18T00:38:01.607Z,76.78
2022-08-18T00:40:38.286Z,76.46
2022-08-18T00:43:04.073Z,75.37
2022-08-18T00:45:32.955Z,76.55
2022-08-18T00:47:55.077Z,77.37
2022-08-18T00:50:22.467Z,77.95
2022-08-18T00:52:52.501Z,76.40
2022-08-18T00:55:15.190Z,76.31
2022-08-18T00:57:36.716Z,77.17
2022-08-18T01:00:09.782Z,77.45
2022-08-18T01:02:37.809Z,78.47
2022-08-18T01:05:06.551Z,78.79
2022-08-18T01:07:36.358Z,77.14
2022-08-18T01:09:59.780Z,78.36
2022-08-18T01:12:46.360Z,78.48
2022-08-18T01:15:03.138Z,78.48
2022-08-18T01:17:44.405Z,77.90
2022-08-18T01:20:24.852Z,77.54
2022-08-18T01:22:49.299Z,78.85
2022-08-18T01:25:29.591Z,78.21
2022-08-18T01:27:51.505Z,77.82
2022-08-18T01:30:17.429Z,78.63
2022-08-18T01:32:40.787Z,78.63
2022-08-18T01:35:02.744Z,77.66
2022-08-18T01:37:24.924Z,77.55
2022-08-18T01:41:23.494Z,78.90
2022-08-18T01:42:28.967Z,79.32
2022-08-18T01:44:51.401Z,79.22
2022-08-18T01:47:12.864Z,79.00
2022-08-18T01:49:34.876Z,77.75
2022-08-18T01:51:56.330Z,78.11
2022-08-18T01:54:17.814Z,78.58
2022-08-18T01:56:41.015Z,79.80
2022-08-18T01:59:02.506Z,79.24
2022-08-18T02:01:36.450Z,79.61
2022-08-18T02:04:31.045Z,79.65
2022-08-18T02:06:42.363Z,79.54
2022-08-18T02:09:09.415Z,78.83
2022-08-18T02:11:31.189Z,77.95
2022-08-18T02:13:53.187Z,78.16
2022-08-18T02:16:14.799Z,78.42
2022-08-18T02:18:48.304Z,78.78
2022-08-18T02:21:19.089Z,79.39
2022-08-18T02:23:44.937Z,80.01
2022-08-18T02:26:17.783Z,80.28
2022-08-18T02:28:40.616Z,79.61
2022-08-18T02:31:11.344Z,79.44
2022-08-18T02:33:33.890Z,78.27
2022-08-18T02:35:55.594Z,78.80
2022-08-18T02:38:17.411Z,80.34
2022-08-18T02:40:39.385Z,79.20
2022-08-18T02:43:06.925Z,79.90
2022-08-18T02:45:29.002Z,80.65
2022-08-18T02:47:54.676Z,81.67
2022-08-18T02:50:16.934Z,81.36
2022-08-18T02:52:39.411Z,80.56
2022-08-18T02:55:02.442Z,80.66
2022-08-18T02:57:23.904Z,80.74
2022-08-18T02:59:46.918Z,79.94
2022-08-18T03:02:10.267Z,79.92
2022-08-18T03:04:32.409Z,80.10
2022-08-18T03:06:55.231Z,80.04
2022-08-18T03:09:18.480Z,81.34
2022-08-18T03:11:40.530Z,81.06
2022-08-18T03:14:05.650Z,80.68
2022-08-18T03:16:31.135Z,80.02
2022-08-18T03:18:53.714Z,79.98
2022-08-18T03:21:24.049Z,80.32
2022-08-18T03:23:45.586Z,80.61
2022-08-18T03:26:24.696Z,80.46
2022-08-18T03:28:48.762Z,82.00
2022-08-18T03:31:11.866Z,82.06
2022-08-18T03:33:33.813Z,81.57
2022-08-18T03:35:55.259Z,80.93
2022-08-18T03:38:16.866Z,80.72
2022-08-18T03:40:38.398Z,80.57
2022-08-18T03:43:06.389Z,80.33
2022-08-18T03:45:47.810Z,79.99
2022-08-18T03:48:11.015Z,80.53
2022-08-18T03:50:32.689Z,80.08
2022-08-18T03:52:54.304Z,80.09
2022-08-18T03:55:16.284Z,80.37
2022-08-18T03:57:39.073Z,80.16
2022-08-18T04:00:01.042Z,79.99
2022-08-18T04:02:23.915Z,79.76
2022-08-18T04:04:45.421Z,80.44
2022-08-18T04:07:14.304Z,81.09
2022-08-18T04:09:38.228Z,81.02
2022-08-18T04:12:06.947Z,81.39
2022-08-18T04:14:32.391Z,81.37
2022-08-18T04:16:53.938Z,81.03
2022-08-18T04:19:26.554Z,80.83
2022-08-18T04:21:53.115Z,80.40
2022-08-18T04:24:14.735Z,80.77
2022-08-18T04:26:39.553Z,80.77
2022-08-18T04:29:01.721Z,80.81
2022-08-18T04:31:24.794Z,81.28
2022-08-18T04:33:46.273Z,81.75
2022-08-18T04:36:20.685Z,82.11
2022-08-18T04:38:42.688Z,81.54
2022-08-18T04:41:05.506Z,80.79
2022-08-18T04:43:27.110Z,81.43
2022-08-18T04:45:50.666Z,81.57
2022-08-18T04:48:13.518Z,82.02
2022-08-18T04:50:37.071Z,82.69
2022-08-18T04:53:17.214Z,82.20
2022-08-18T04:55:38.636Z,81.55
2022-08-18T04:58:00.824Z,82.03
2022-08-18T05:00:22.302Z,81.56
2022-08-18T05:02:43.973Z,82.35
2022-08-18T05:05:06.394Z,81.74
2022-08-18T05:07:27.878Z,82.55
2022-08-18T05:09:49.784Z,82.81
2022-08-18T05:12:14.229Z,82.84
2022-08-18T05:14:36.236Z,82.68
2022-08-18T05:17:01.703Z,82.74
2022-08-18T05:19:26.686Z,82.25
2022-08-18T05:21:51.605Z,82.45
2022-08-18T05:24:13.730Z,82.02
2022-08-18T05:26:36.736Z,81.88
2022-08-18T05:29:17.798Z,81.84
2022-08-18T05:31:40.391Z,82.84
2022-08-18T05:34:04.036Z,81.96
2022-08-18T05:36:25.411Z,81.86
2022-08-18T05:38:58.726Z,82.08
2022-08-18T05:41:29.943Z,81.60
2022-08-18T05:43:52.543Z,81.59
2022-08-18T05:46:14.213Z,81.29
2022-08-18T05:48:42.735Z,81.16
2022-08-18T05:51:19.957Z,80.56
2022-08-18T05:54:06.125Z,81.02
2022-08-18T05:56:47.649Z,81.35
2022-08-18T05:59:11.020Z,80.71
2022-08-18T06:01:42.565Z,80.35
2022-08-18T06:04:26.461Z,80.11
2022-08-18T06:06:49.337Z,79.48
2022-08-18T06:09:17.558Z,79.36
2022-08-18T06:11:39.229Z,79.20
2022-08-18T06:14:01.388Z,79.32
2022-08-18T06:16:29.716Z,79.25
2022-08-18T06:18:59.438Z,79.84
2022-08-18T06:21:59.464Z,79.76
2022-08-18T06:24:24.577Z,79.46
2022-08-18T06:27:03.627Z,78.74
2022-08-18T06:29:47.263Z,78.58
2022-08-18T06:32:36.947Z,78.58
2022-08-18T06:35:18.538Z,78.91
2022-08-18T06:38:25.595Z,79.66
2022-08-18T06:40:48.631Z,78.20
2022-08-18T06:43:15.867Z,77.91
2022-08-18T06:45:40.083Z,77.56
2022-08-18T06:48:12.673Z,77.62
2022-08-18T06:50:46.721Z,78.15
2022-08-18T06:53:26.420Z,78.80
2022-08-18T06:55:50.612Z,78.64
2022-08-18T06:58:32.707Z,78.80
2022-08-18T07:01:05.796Z,78.51
2022-08-18T07:03:47.956Z,78.51
2022-08-18T07:06:24.580Z,77.82
2022-08-18T07:08:51.820Z,77.22
2022-08-18T07:11:23.115Z,77.24
2022-08-18T07:14:09.441Z,77.60
2022-08-18T07:16:57.817Z,77.37
2022-08-18T07:19:29.425Z,76.59
2022-08-18T07:25:34.624Z,76.41
2022-08-18T07:28:08.234Z,76.85
2022-08-18T07:30:54.810Z,77.50
2022-08-18T07:33:32.127Z,78.22
2022-08-18T07:36:07.818Z,78.48
2022-08-18T07:38:43.163Z,79.29
2022-08-18T07:41:37.017Z,79.72
2022-08-18T07:44:28.999Z,80.83
2022-08-18T07:47:02.333Z,80.76
2022-08-18T07:52:43.834Z,81.90
2022-08-18T08:01:45.557Z,84.01
2022-08-18T08:04:27.042Z,85.77
2022-08-18T08:07:22.515Z,85.53
2022-08-18T08:09:36.748Z,84.93
2022-08-18T08:12:11.155Z,84.24
2022-08-18T08:14:32.553Z,83.77
2022-08-18T08:17:30.484Z,83.55
2022-08-18T08:20:11.226Z,83.07
2022-08-18T08:22:52.967Z,83.47
2022-08-18T08:25:46.267Z,83.83
2022-08-18T08:28:42.770Z,84.51
2022-08-18T08:31:33.314Z,85.01
2022-08-18T08:34:06.018Z,85.91
2022-08-18T08:36:33.394Z,87.05
2022-08-18T08:38:57.024Z,87.46
2022-08-18T08:41:32.664Z,89.06
2022-08-18T08:44:20.777Z,89.97
2022-08-18T08:46:50.358Z,90.14
2022-08-18T08:49:28.881Z,89.19
2022-08-18T08:51:57.984Z,89.24
2022-08-18T08:54:24.778Z,89.32
2022-08-18T08:56:49.721Z,91.07
2022-08-18T08:59:15.215Z,90.34
2022-08-18T09:01:54.939Z,91.87
2022-08-18T09:04:37.706Z,91.76
2022-08-18T09:07:30.352Z,91.59
2022-08-18T09:10:24.632Z,91.48
2022-08-18T09:13:05.459Z,89.73
2022-08-18T09:15:58.332Z,89.57
2022-08-18T09:18:44.969Z,89.25
2022-08-18T09:21:34.459Z,89.44
2022-08-18T09:28:10.060Z,92.08
2022-08-18T09:30:53.730Z,89.64
2022-08-18T09:33:20.648Z,88.30
2022-08-18T09:35:54.924Z,87.95
2022-08-18T09:38:42.424Z,88.19
2022-08-18T09:41:32.886Z,87.63
2022-08-18T09:44:11.840Z,86.97
2022-08-18T09:46:43.837Z,86.61
2022-08-18T09:49:26.433Z,87.56
2022-08-18T09:51:50.438Z,84.76
2022-08-18T09:54:20.840Z,84.74
2022-08-18T09:56:53.964Z,86.22
2022-08-18T09:59:37.056Z,86.12
2022-08-18T10:02:06.510Z,85.22
2022-08-18T10:04:51.328Z,83.43
2022-08-18T10:07:38.773Z,82.92
2022-08-18T10:11:00.827Z,83.29
2022-08-18T10:13:33.920Z,84.04
2022-08-18T10:16:22.218Z,83.56
2022-08-18T10:19:15.088Z,84.74
2022-08-18T10:21:55.994Z,84.28
2022-08-18T10:24:36.918Z,83.89
2022-08-18T10:27:02.598Z,82.49
2022-08-18T10:29:32.278Z,82.15
2022-08-18T10:31:57.646Z,81.03
2022-08-18T10:34:51.416Z,80.42
2022-08-18T10:37:20.084Z,79.06
2022-08-18T10:39:52.935Z,78.80
2022-08-18T10:45:36.596Z,78.41
2022-08-18T10:48:16.882Z,77.72
2022-08-18T10:50:48.976Z,77.17
2022-08-18T10:53:39.161Z,76.96
2022-08-18T10:56:26.848Z,75.57
2022-08-18T10:59:28.217Z,74.24
2022-08-18T11:02:32.050Z,72.30
2022-08-18T11:07:42.932Z,71.05
2022-08-18T11:10:30.570Z,73.08
2022-08-18T11:13:17.928Z,73.87
2022-08-18T11:15:52.466Z,71.67
2022-08-18T11:18:32.647Z,72.69
2022-08-18T11:21:42.852Z,72.22
2022-08-18T11:24:27.122Z,72.19
2022-08-18T11:26:54.767Z,72.67
2022-08-18T11:29:29.003Z,70.48
2022-08-18T11:32:12.197Z,71.84
2022-08-18T11:34:53.073Z,71.24
2022-08-18T11:37:49.550Z,71.38
2022-08-18T11:41:08.674Z,74.46
2022-08-18T11:43:23.850Z,72.00
2022-08-18T11:45:48.180Z,71.28
2022-08-18T11:48:15.588Z,73.46
2022-08-18T11:51:01.857Z,73.56
2022-08-18T11:53:36.005Z,74.54
2022-08-18T11:56:30.538Z,73.84
2022-08-18T11:59:52.340Z,72.12
2022-08-18T12:02:21.408Z,72.14
2022-08-18T12:04:45.557Z,71.10
2022-08-18T12:07:11.460Z,70.90
2022-08-18T12:10:17.917Z,69.41
2022-08-18T12:15:43.435Z,67.41
2022-08-18T12:18:06.387Z,67.18
2022-08-18T12:20:28.329Z,64.82
2022-08-18T12:22:51.772Z,65.61
2022-08-18T12:25:16.343Z,63.83
2022-08-18T12:27:47.155Z,65.90
2022-08-18T12:30:16.806Z,65.10
2022-08-18T12:32:48.879Z,63.20
2022-08-18T12:35:12.253Z,59.33
2022-08-18T12:40:15.258Z,61.54
2022-08-18T12:42:37.068Z,59.32
2022-08-18T12:44:58.558Z,58.65
2022-08-18T12:47:23.038Z,59.83
2022-08-18T12:49:44.545Z,59.60
2022-08-18T12:52:06.999Z,61.11
2022-08-18T12:54:35.900Z,60.90
2022-08-18T12:56:58.077Z,61.61
2022-08-18T12:59:20.154Z,61.41
2022-08-18T13:01:41.848Z,62.68
2022-08-18T13:04:12.949Z,61.66
2022-08-18T13:06:40.797Z,63.12
2022-08-18T13:09:16.735Z,61.00
2022-08-18T13:11:49.312Z,60.65
2022-08-18T13:14:12.035Z,60.39
2022-08-18T13:16:47.825Z,60.97
2022-08-18T13:19:16.348Z,59.14
2022-08-18T13:21:41.458Z,58.90
2022-08-18T13:24:05.227Z,59.46
2022-08-18T13:26:36.044Z,57.68
2022-08-18T13:28:58.608Z,58.83
2022-08-18T13:31:20.353Z,59.22
2022-08-18T13:33:59.775Z,59.94
2022-08-18T13:36:22.661Z,57.59
2022-08-18T13:38:44.115Z,58.66
2022-08-18T13:41:06.402Z,57.80
2022-08-18T13:43:34.509Z,56.67
2022-08-18T13:45:56.568Z,55.97
2022-08-18T13:48:18.101Z,53.79
2022-08-18T13:50:40.357Z,53.66
2022-08-18T13:53:03.273Z,52.51
2022-08-18T13:55:29.115Z,51.76
2022-08-18T13:57:50.660Z,53.56
2022-08-18T14:00:29.708Z,51.28
2022-08-18T14:02:55.360Z,50.62
2022-08-18T14:05:18.109Z,50.13
2022-08-18T14:07:43.033Z,49.19
2022-08-18T14:10:08.186Z,48.34
2022-08-18T14:12:37.506Z,47.67
2022-08-18T14:15:01.605Z,47.40
2022-08-18T14:17:25.462Z,46.96
2022-08-18T14:20:05.673Z,47.19
2022-08-18T14:22:51.425Z,47.37
2022-08-18T14:25:33.265Z,47.97
2022-08-18T14:27:56.784Z,47.12
2022-08-18T14:30:19.029Z,46.65
2022-08-18T14:32:49.226Z,47.84
2022-08-18T14:35:33.835Z,46.46
2022-08-18T14:37:56.279Z,46.67
2022-08-18T14:40:20.171Z,46.02
2022-08-18T14:42:54.332Z,45.14
2022-08-18T14:51:10.309Z,45.41
2022-08-18T14:56:22.646Z,44.39
2022-08-18T14:58:49.785Z,43.08
2022-08-18T15:01:13.339Z,42.89
2022-08-18T15:03:38.919Z,42.74
2022-08-18T15:06:04.496Z,43.20
2022-08-18T15:08:26.704Z,43.83
2022-08-18T15:10:48.824Z,43.89
2022-08-18T15:13:13.083Z,42.94
2022-08-18T15:15:50.852Z,42.08
2022-08-18T15:18:13.413Z,42.95
2022-08-18T15:20:54.955Z,42.06
2022-08-18T15:23:35.118Z,42.12
2022-08-18T15:25:56.794Z,42.97
2022-08-18T15:28:23.732Z,44.24
2022-08-18T15:30:51.063Z,44.43
2022-08-18T15:33:16.765Z,44.53
2022-08-18T15:35:44.186Z,45.28
2022-08-18T15:38:07.021Z,45.28
2022-08-18T15:40:30.751Z,45.08
2022-08-18T15:43:03.680Z,44.30
2022-08-18T15:45:28.582Z,44.88
2022-08-18T15:47:56.951Z,44.58
2022-08-18T15:50:26.052Z,44.58
2022-08-18T15:53:08.022Z,44.95
2022-08-18T15:55:35.896Z,46.27
2022-08-18T15:57:59.748Z,46.07
2022-08-18T16:00:25.012Z,46.33
2022-08-18T16:02:53.482Z,47.21
2022-08-18T16:05:15.631Z,46.93
2022-08-18T16:07:41.009Z,47.34
2022-08-18T16:10:06.961Z,48.04
2022-08-18T16:12:28.457Z,48.57
2022-08-18T16:14:52.871Z,49.60
2022-08-18T16:17:23.607Z,49.83
2022-08-18T16:19:46.303Z,48.99
2022-08-18T16:22:07.764Z,48.74
2022-08-18T16:24:29.224Z,49.49
2022-08-18T16:26:51.965Z,49.24
2022-08-18T16:29:13.458Z,48.05
2022-08-18T16:31:34.933Z,48.39
2022-08-18T16:33:57.865Z,48.47
2022-08-18T16:36:19.617Z,49.12
2022-08-18T16:38:43.290Z,48.97
2022-08-18T16:41:14.939Z,49.21
2022-08-18T16:43:37.620Z,49.23
2022-08-18T16:45:59.612Z,49.24
2022-08-18T16:48:21.812Z,48.77
2022-08-18T16:50:45.312Z,49.66
2022-08-18T16:53:06.844Z,49.76
2022-08-18T16:55:28.381Z,49.49
2022-08-18T16:58:10.669Z,50.25
2022-08-18T17:00:54.908Z,50.47
2022-08-18T17:03:35.574Z,50.85
2022-08-18T17:06:06.549Z,50.88
2022-08-18T17:08:28.410Z,50.81
2022-08-18T17:10:50.324Z,51.65
2022-08-18T17:13:11.865Z,52.67
2022-08-18T17:15:33.376Z,52.89
2022-08-18T17:17:54.896Z,53.90
2022-08-18T17:20:18.822Z,54.50
2022-08-18T17:22:40.740Z,54.53
2022-08-18T17:25:03.290Z,55.14
2022-08-18T17:27:37.302Z,55.79
2022-08-18T17:30:13.763Z,56.97
2022-08-18T17:32:53.255Z,57.39
2022-08-18T17:35:36.830Z,58.94
2022-08-18T17:38:07.190Z,59.62
2022-08-18T17:40:48.014Z,60.92
2022-08-18T17:43:13.889Z,61.70
2022-08-18T17:45:36.032Z,62.21
2022-08-18T17:48:11.751Z,62.47
2022-08-18T17:50:56.079Z,63.22
2022-08-18T17:53:21.726Z,63.60
2022-08-18T17:55:49.739Z,64.37
2022-08-18T17:58:29.613Z,66.35
2022-08-18T18:00:51.068Z,65.79
2022-08-18T18:03:13.421Z,66.39
2022-08-18T18:05:43.053Z,66.68
2022-08-18T18:08:05.510Z,66.72
2022-08-18T18:11:03.890Z,68.28
2022-08-18T18:13:29.242Z,68.96
2022-08-18T18:15:53.854Z,68.78
2022-08-18T18:18:41.757Z,69.13
2022-08-18T18:21:19.721Z,69.47
2022-08-18T18:23:48.775Z,69.78
2022-08-18T18:26:22.760Z,70.16
2022-08-18T18:28:44.270Z,70.08
2022-08-18T18:31:35.112Z,69.80
2022-08-18T18:34:06.856Z,70.04
2022-08-18T18:36:47.667Z,69.83
2022-08-18T18:39:17.160Z,69.84
2022-08-18T18:41:40.563Z,70.13
2022-08-18T18:44:09.414Z,70.29
2022-08-18T18:46:35.254Z,71.49
2022-08-18T18:48:56.632Z,71.03
2022-08-18T18:51:33.679Z,71.21
2022-08-18T18:54:14.984Z,70.16
2022-08-18T18:56:52.679Z,70.90
2022-08-18T18:59:25.791Z,72.04
2022-08-18T19:02:34.161Z,72.31
2022-08-18T19:05:32.620Z,72.09
2022-08-18T19:08:35.252Z,72.86
2022-08-18T19:11:20.872Z,72.41
2022-08-18T19:14:09.455Z,72.78
2022-08-18T19:19:46.703Z,73.40
2022-08-18T19:22:19.371Z,73.14
2022-08-18T19:25:07.449Z,72.84
2022-08-18T19:27:56.238Z,73.58
2022-08-18T19:31:07.751Z,74.11
2022-08-18T19:33:49.669Z,74.38
2022-08-18T19:36:54.882Z,75.37
2022-08-18T19:39:47.289Z,75.51
2022-08-18T19:42:31.596Z,75.32
2022-08-18T19:45:31.843Z,75.74
2022-08-18T19:48:15.155Z,76.96
2022-08-18T19:51:04.054Z,76.50
2022-08-18T19:54:25.073Z,77.32
2022-08-18T19:57:24.878Z,77.15
2022-08-18T20:00:23.520Z,77.81
2022-08-18T20:03:33.458Z,78.42
2022-08-18T20:06:35.875Z,77.28
2022-08-18T20:09:35.971Z,77.59
2022-08-18T20:14:54.225Z,79.88
2022-08-18T20:17:23.598Z,78.81
2022-08-18T20:20:15.107Z,79.11
2022-08-18T20:22:48.747Z,79.56
2022-08-18T20:25:53.052Z,79.38
2022-08-18T20:28:40.694Z,80.08
2022-08-18T20:31:47.336Z,80.81
2022-08-18T20:34:30.767Z,80.83
2022-08-18T20:37:03.025Z,80.66
2022-08-18T20:40:03.655Z,81.14
2022-08-18T20:42:55.928Z,82.83
2022-08-18T20:45:48.692Z,82.75
2022-08-18T20:51:58.342Z,82.85
2022-08-18T20:55:00.490Z,82.28
2022-08-18T20:57:55.568Z,83.81
2022-08-18T21:00:27.818Z,82.93
2022-08-18T21:03:20.292Z,82.38
2022-08-18T21:08:54.362Z,82.86
2022-08-18T21:11:29.684Z,83.03
2022-08-18T21:13:59.599Z,84.00
2022-08-18T21:16:38.639Z,84.15
2022-08-18T21:19:11.343Z,85.55
2022-08-18T21:21:51.735Z,83.75
2022-08-18T21:24:35.666Z,84.99
2022-08-18T21:27:08.245Z,84.72
2022-08-18T21:29:38.248Z,85.41
2022-08-18T21:32:17.798Z,86.25
2022-08-18T21:34:48.055Z,86.39
2022-08-18T21:37:28.062Z,86.37
2022-08-18T21:48:17.767Z,87.08
2022-08-18T21:51:00.966Z,88.05
2022-08-18T21:53:29.773Z,87.60
2022-08-18T21:55:58.055Z,87.28
2022-08-18T21:58:46.130Z,87.84
2022-08-18T22:01:17.804Z,88.81
2022-08-18T22:04:18.112Z,89.29
2022-08-18T22:10:20.969Z,88.81
2022-08-18T22:13:16.931Z,88.32
2022-08-18T22:15:52.767Z,88.97
2022-08-18T22:18:21.871Z,88.52
2022-08-18T22:20:50.399Z,87.92
2022-08-18T22:26:24.964Z,88.57
2022-08-18T22:29:16.770Z,88.76
2022-08-18T22:31:49.117Z,89.56
2022-08-18T22:34:27.401Z,89.97
2022-08-18T22:37:06.331Z,89.38
2022-08-18T22:39:55.340Z,88.89
2022-08-18T22:42:30.400Z,89.05
2022-08-18T22:45:04.918Z,88.76
2022-08-18T22:47:45.135Z,88.50
2022-08-18T22:50:16.377Z,88.53
2022-08-18T22:52:51.296Z,87.90
2022-08-18T22:55:28.669Z,88.73
2022-08-18T23:00:45.265Z,90.06
2022-08-18T23:03:18.692Z,89.68
2022-08-18T23:05:58.138Z,89.25
2022-08-18T23:08:55.355Z,89.00
2022-08-18T23:11:30.051Z,89.23
2022-08-18T23:14:06.137Z,89.13
2022-08-18T23:16:32.894Z,88.85
2022-08-18T23:18:57.970Z,89.22
2022-08-18T23:21:34.981Z,89.60
2022-08-18T23:24:06.368Z,89.20
2022-08-18T23:26:58.640Z,90.18
2022-08-18T23:29:26.619Z,90.92
2022-08-18T23:31:55.000Z,90.43
2022-08-18T23:34:33.110Z,90.24
2022-08-18T23:39:49.847Z,90.64
2022-08-18T23:42:16.053Z,91.09
2022-08-18T23:44:52.207Z,90.96
2022-08-18T23:47:23.114Z,91.23
2022-08-18T23:50:12.895Z,91.47
2022-08-18T23:53:11.527Z,91.93
2022-08-18T23:55:38.856Z,92.04
2022-08-18T23:58:14.014Z,92.71
